createdAt,value
2023-08-01T00:00:05.464Z,42.58
2023-08-01T00:01:05.601Z,42.69
2023-08-01T00:02:05.540Z,42.70
2023-08-01T00:03:05.516Z,42.77
2023-08-01T00:04:05.533Z,42.83
2023-08-01T00:05:05.456Z,42.95
2023-08-01T00:06:05.434Z,42.96
2023-08-01T00:07:05.469Z,42.99
2023-08-01T00:08:05.439Z,43.02
2023-08-01T00:09:05.498Z,43.14
2023-08-01T00:10:05.455Z,43.17
2023-08-01T00:11:05.429Z,43.22
2023-08-01T00:12:05.811Z,43.24
2023-08-01T00:13:05.435Z,43.26
2023-08-01T00:14:05.393Z,43.31
2023-08-01T00:15:05.422Z,43.42
2023-08-01T00:16:07.967Z,43.50
2023-08-01T00:17:05.407Z,43.53
2023-08-01T00:18:05.450Z,43.42
2023-08-01T00:19:05.377Z,43.61
2023-08-01T00:20:05.398Z,43.61
2023-08-01T00:21:05.358Z,43.61
2023-08-01T00:22:05.428Z,43.74
2023-08-01T00:23:05.411Z,43.79
2023-08-01T00:24:05.368Z,43.90
2023-08-01T00:25:05.412Z,44.01
2023-08-01T00:26:05.390Z,44.01
2023-08-01T00:27:05.369Z,44.06
2023-08-01T00:28:05.425Z,43.98
2023-08-01T00:29:05.306Z,44.15
2023-08-01T00:30:05.365Z,44.17
2023-08-01T00:31:05.317Z,44.22
2023-08-01T00:32:05.322Z,44.30
2023-08-01T00:33:05.267Z,44.30
2023-08-01T00:34:05.274Z,44.35
2023-08-01T00:35:05.263Z,44.35
2023-08-01T00:36:05.235Z,44.50
2023-08-01T00:37:05.251Z,44.52
2023-08-01T00:38:05.227Z,44.45
2023-08-01T00:39:05.231Z,44.59
2023-08-01T00:40:05.261Z,44.56
2023-08-01T00:41:05.219Z,44.62
2023-08-01T00:42:05.192Z,44.63
2023-08-01T00:43:05.301Z,44.61
2023-08-01T00:44:05.182Z,44.69
2023-08-01T00:45:05.200Z,44.70
2023-08-01T00:46:05.204Z,44.59
2023-08-01T00:47:05.191Z,44.70
2023-08-01T00:48:05.203Z,44.70
2023-08-01T00:49:05.162Z,44.67
2023-08-01T00:50:05.199Z,44.80
2023-08-01T00:51:05.169Z,44.81
2023-08-01T00:52:05.345Z,44.86
2023-08-01T00:53:05.135Z,44.92
2023-08-01T00:54:05.110Z,44.88
2023-08-01T00:55:05.133Z,44.91
2023-08-01T00:56:05.114Z,44.89
2023-08-01T00:57:05.122Z,44.94
2023-08-01T00:58:05.141Z,45.07
2023-08-01T00:59:05.103Z,45.07
2023-08-01T01:00:05.083Z,45.09
2023-08-01T01:01:05.106Z,45.09
2023-08-01T01:02:05.120Z,45.04
2023-08-01T01:03:05.178Z,45.09
2023-08-01T01:04:05.049Z,45.14
2023-08-01T01:05:05.062Z,45.15
2023-08-01T01:06:05.044Z,45.21
2023-08-01T01:07:05.049Z,45.13
2023-08-01T01:08:05.339Z,45.20
2023-08-01T01:09:05.043Z,45.13
2023-08-01T01:10:05.029Z,45.11
2023-08-01T01:11:05.024Z,45.25
2023-08-01T01:12:04.988Z,45.24
2023-08-01T01:13:05.028Z,45.22
2023-08-01T01:14:05.030Z,45.23
2023-08-01T01:15:04.977Z,45.22
2023-08-01T01:16:04.967Z,45.26
2023-08-01T01:17:05.052Z,45.23
2023-08-01T01:18:04.966Z,45.25
2023-08-01T01:19:04.982Z,45.22
2023-08-01T01:20:04.937Z,45.22
2023-08-01T01:21:04.948Z,45.30
2023-08-01T01:22:04.971Z,45.27
2023-08-01T01:23:04.954Z,45.19
2023-08-01T01:24:04.935Z,45.26
2023-08-01T01:25:04.957Z,45.22
2023-08-01T01:26:04.917Z,45.19
2023-08-01T01:27:04.920Z,45.26
2023-08-01T01:28:04.961Z,45.28
2023-08-01T01:29:04.908Z,45.24
2023-08-01T01:30:04.881Z,45.24
2023-08-01T01:31:04.955Z,45.22
2023-08-01T01:32:04.899Z,45.19
2023-08-01T01:33:04.964Z,45.24
2023-08-01T01:34:04.862Z,45.26
2023-08-01T01:35:04.852Z,45.22
2023-08-01T01:36:04.851Z,45.19
2023-08-01T01:37:04.850Z,45.20
2023-08-01T01:38:04.836Z,45.19
2023-08-01T01:39:04.839Z,45.17
2023-08-01T01:40:04.842Z,45.21
2023-08-01T01:41:04.830Z,45.27
2023-08-01T01:42:04.806Z,45.22
2023-08-01T01:43:04.806Z,45.19
2023-08-01T01:44:04.817Z,45.23
2023-08-01T01:45:04.791Z,45.27
2023-08-01T01:46:04.878Z,45.24
2023-08-01T01:47:04.794Z,45.26
2023-08-01T01:48:04.809Z,45.35
2023-08-01T01:49:04.776Z,45.29
2023-08-01T01:50:04.776Z,45.31
2023-08-01T01:51:04.783Z,45.24
2023-08-01T01:52:04.751Z,45.28
2023-08-01T01:53:04.773Z,45.29
2023-08-01T01:54:04.747Z,45.31
2023-08-01T01:55:04.748Z,45.35
2023-08-01T01:56:04.758Z,45.35
2023-08-01T01:57:04.806Z,45.34
2023-08-01T01:58:04.832Z,45.36
2023-08-01T01:59:04.832Z,45.37
2023-08-01T02:00:04.890Z,45.32
2023-08-01T02:01:04.925Z,45.37
2023-08-01T02:02:04.938Z,45.37
2023-08-01T02:03:04.934Z,45.43
2023-08-01T02:04:04.955Z,45.43
2023-08-01T02:05:05.047Z,45.41
2023-08-01T02:06:04.991Z,45.41
2023-08-01T02:07:05.006Z,45.43
2023-08-01T02:08:05.046Z,45.47
2023-08-01T02:09:05.109Z,45.43
2023-08-01T02:10:05.069Z,45.41
2023-08-01T02:11:05.105Z,45.37
2023-08-01T02:12:05.136Z,45.43
2023-08-01T02:13:05.139Z,45.34
2023-08-01T02:14:05.172Z,45.36
2023-08-01T02:15:05.206Z,45.34
2023-08-01T02:16:05.347Z,45.34
2023-08-01T02:17:05.249Z,45.33
2023-08-01T02:18:05.299Z,45.36
2023-08-01T02:19:05.268Z,45.34
2023-08-01T02:20:05.321Z,45.32
2023-08-01T02:21:05.334Z,45.26
2023-08-01T02:22:05.345Z,45.30
2023-08-01T02:23:05.371Z,45.31
2023-08-01T02:24:05.400Z,45.31
2023-08-01T02:25:05.411Z,45.26
2023-08-01T02:26:05.500Z,45.32
2023-08-01T02:27:05.507Z,45.26
2023-08-01T02:28:05.590Z,45.29
2023-08-01T02:29:05.506Z,45.27
2023-08-01T02:30:05.546Z,45.27
2023-08-01T02:31:05.585Z,45.31
2023-08-01T02:32:05.651Z,45.18
2023-08-01T02:33:05.700Z,45.23
2023-08-01T02:34:05.637Z,45.26
2023-08-01T02:35:05.655Z,45.23
2023-08-01T02:36:05.679Z,45.22
2023-08-01T02:37:05.718Z,45.24
2023-08-01T02:38:05.807Z,45.29
2023-08-01T02:39:05.832Z,45.24
2023-08-01T02:40:05.791Z,45.27
2023-08-01T02:41:05.847Z,45.23
2023-08-01T02:42:05.957Z,45.27
2023-08-01T02:43:05.907Z,45.24
2023-08-01T02:44:05.941Z,45.29
2023-08-01T02:45:06.895Z,45.28
2023-08-01T02:46:06.015Z,45.24
2023-08-01T02:47:05.999Z,45.25
2023-08-01T02:48:06.107Z,45.22
2023-08-01T02:49:06.060Z,45.25
2023-08-01T02:50:06.080Z,45.19
2023-08-01T02:51:06.122Z,45.18
2023-08-01T02:52:06.155Z,45.22
2023-08-01T02:53:06.177Z,45.19
2023-08-01T02:54:06.209Z,45.18
2023-08-01T02:55:06.234Z,45.16
2023-08-01T02:56:06.258Z,45.16
2023-08-01T02:57:06.307Z,45.14
2023-08-01T02:58:06.330Z,45.18
2023-08-01T02:59:06.353Z,45.12
2023-08-01T03:00:06.392Z,45.12
2023-08-01T03:01:06.435Z,45.13
2023-08-01T03:02:06.431Z,45.13
2023-08-01T03:03:06.489Z,45.12
2023-08-01T03:04:06.482Z,45.13
2023-08-01T03:05:06.511Z,45.10
2023-08-01T03:06:06.542Z,45.18
2023-08-01T03:07:06.595Z,45.14
2023-08-01T03:08:06.585Z,45.16
2023-08-01T03:09:06.634Z,45.12
2023-08-01T03:10:06.641Z,45.18
2023-08-01T03:11:06.704Z,45.19
2023-08-01T03:12:06.737Z,45.17
2023-08-01T03:13:06.748Z,45.18
2023-08-01T03:14:06.778Z,45.19
2023-08-01T03:15:06.812Z,45.19
2023-08-01T03:16:06.880Z,45.10
2023-08-01T03:17:06.880Z,45.12
2023-08-01T03:18:06.925Z,45.10
2023-08-01T03:19:06.915Z,45.08
2023-08-01T03:20:06.946Z,45.03
2023-08-01T03:21:07.002Z,45.04
2023-08-01T03:22:06.995Z,45.06
2023-08-01T03:23:07.030Z,45.05
2023-08-01T03:24:07.081Z,45.04
2023-08-01T03:25:07.075Z,45.06
2023-08-01T03:26:07.129Z,45.10
2023-08-01T03:27:07.141Z,45.08
2023-08-01T03:28:07.210Z,45.07
2023-08-01T03:29:07.253Z,45.09
2023-08-01T03:30:07.246Z,45.10
2023-08-01T03:31:07.267Z,45.07
2023-08-01T03:32:07.393Z,45.06
2023-08-01T03:33:07.365Z,45.09
2023-08-01T03:34:07.414Z,45.10
2023-08-01T03:35:07.397Z,45.07
2023-08-01T03:36:07.417Z,45.15
2023-08-01T03:37:07.484Z,45.13
2023-08-01T03:38:07.505Z,45.12
2023-08-01T03:39:07.550Z,45.15
2023-08-01T03:40:07.573Z,45.19
2023-08-01T03:41:07.611Z,45.15
2023-08-01T03:42:07.653Z,45.15
2023-08-01T03:43:07.706Z,45.21
2023-08-01T03:44:07.716Z,45.19
2023-08-01T03:45:07.760Z,45.23
2023-08-01T03:46:07.825Z,45.23
2023-08-01T03:47:07.853Z,45.23
2023-08-01T03:48:07.918Z,45.28
2023-08-01T03:49:07.887Z,45.25
2023-08-01T03:50:07.965Z,45.29
2023-08-01T03:51:07.981Z,45.25
2023-08-01T03:52:08.003Z,45.33
2023-08-01T03:53:08.057Z,45.32
2023-08-01T03:54:14.053Z,45.29
2023-08-01T03:55:09.083Z,45.29
2023-08-01T03:56:08.062Z,45.30
2023-08-01T03:57:08.061Z,45.34
2023-08-01T03:58:08.061Z,45.34
2023-08-01T03:59:08.047Z,45.34
2023-08-01T04:00:08.043Z,45.35
2023-08-01T04:01:08.060Z,45.34
2023-08-01T04:02:08.039Z,45.39
2023-08-01T04:03:08.078Z,45.32
2023-08-01T04:04:08.089Z,45.35
2023-08-01T04:05:08.007Z,45.35
2023-08-01T04:06:08.006Z,45.36
2023-08-01T04:07:07.993Z,45.41
2023-08-01T04:08:08.031Z,45.43
2023-08-01T04:09:08.061Z,45.46
2023-08-01T04:10:08.102Z,45.48
2023-08-01T04:11:08.130Z,45.46
2023-08-01T04:12:08.169Z,45.46
2023-08-01T04:13:08.202Z,45.47
2023-08-01T04:14:08.249Z,45.50
2023-08-01T04:15:08.277Z,45.47
2023-08-01T04:16:08.346Z,45.43
2023-08-01T04:17:08.369Z,45.45
2023-08-01T04:18:08.466Z,45.43
2023-08-01T04:19:08.434Z,45.42
2023-08-01T04:20:08.482Z,45.47
2023-08-01T04:21:08.500Z,45.46
2023-08-01T04:22:08.547Z,45.47
2023-08-01T04:23:08.567Z,45.46
2023-08-01T04:24:08.597Z,45.46
2023-08-01T04:25:08.634Z,45.45
2023-08-01T04:26:08.692Z,45.42
2023-08-01T04:27:08.724Z,45.47
2023-08-01T04:28:08.818Z,45.43
2023-08-01T04:29:08.901Z,45.43
2023-08-01T04:30:08.869Z,45.43
2023-08-01T04:31:08.920Z,45.48
2023-08-01T04:32:08.946Z,45.47
2023-08-01T04:33:09.038Z,45.47
2023-08-01T04:34:09.000Z,45.47
2023-08-01T04:35:09.061Z,45.47
2023-08-01T04:36:09.102Z,45.51
2023-08-01T04:37:09.154Z,45.53
2023-08-01T04:38:09.172Z,45.50
2023-08-01T04:39:09.195Z,45.47
2023-08-01T04:40:09.291Z,45.47
2023-08-01T04:41:09.296Z,45.49
2023-08-01T04:42:09.348Z,45.49
2023-08-01T04:43:09.390Z,45.49
2023-08-01T04:44:09.437Z,45.53
2023-08-01T04:45:09.473Z,45.48
2023-08-01T04:46:10.710Z,45.47
2023-08-01T04:47:09.598Z,45.52
2023-08-01T04:48:09.581Z,45.51
2023-08-01T04:49:09.635Z,45.51
2023-08-01T04:50:09.696Z,45.50
2023-08-01T04:51:09.723Z,45.51
2023-08-01T04:52:09.783Z,45.46
2023-08-01T04:53:09.801Z,45.55
2023-08-01T04:54:09.836Z,45.52
2023-08-01T04:55:09.898Z,45.55
2023-08-01T04:56:09.933Z,45.56
2023-08-01T04:57:09.962Z,45.54
2023-08-01T04:58:11.540Z,45.48
2023-08-01T04:59:10.111Z,45.56
2023-08-01T05:00:10.086Z,45.56
2023-08-01T05:01:10.244Z,45.57
2023-08-01T05:02:10.181Z,45.56
2023-08-01T05:03:10.361Z,45.53
2023-08-01T05:04:10.266Z,45.61
2023-08-01T05:05:10.335Z,45.62
2023-08-01T05:06:10.405Z,45.60
2023-08-01T05:07:10.435Z,45.61
2023-08-01T05:08:10.469Z,45.61
2023-08-01T05:09:10.512Z,45.61
2023-08-01T05:10:10.574Z,45.65
2023-08-01T05:11:11.439Z,45.66
2023-08-01T05:12:10.657Z,45.65
2023-08-01T05:13:10.722Z,45.69
2023-08-01T05:14:10.760Z,45.62
2023-08-01T05:15:10.861Z,45.66
2023-08-01T05:16:10.863Z,45.70
2023-08-01T05:17:10.916Z,45.71
2023-08-01T05:18:10.945Z,45.71
2023-08-01T05:19:11.009Z,45.70
2023-08-01T05:20:11.041Z,45.69
2023-08-01T05:21:11.103Z,45.68
2023-08-01T05:22:11.122Z,45.73
2023-08-01T05:23:11.189Z,45.72
2023-08-01T05:24:11.214Z,45.76
2023-08-01T05:25:11.282Z,45.74
2023-08-01T05:26:11.310Z,45.74
2023-08-01T05:27:11.379Z,45.77
2023-08-01T05:28:11.411Z,45.69
2023-08-01T05:29:11.454Z,45.75
2023-08-01T05:30:11.479Z,45.78
2023-08-01T05:31:11.558Z,45.72
2023-08-01T05:32:11.562Z,45.76
2023-08-01T05:33:11.686Z,45.78
2023-08-01T05:34:11.655Z,45.76
2023-08-01T05:35:11.677Z,45.84
2023-08-01T05:36:11.732Z,45.80
2023-08-01T05:37:11.815Z,45.84
2023-08-01T05:38:11.830Z,45.82
2023-08-01T05:39:11.894Z,45.81
2023-08-01T05:40:11.968Z,45.84
2023-08-01T05:41:11.981Z,45.86
2023-08-01T05:42:12.021Z,45.88
2023-08-01T05:43:12.073Z,45.88
2023-08-01T05:44:12.161Z,45.90
2023-08-01T05:45:12.204Z,45.84
2023-08-01T05:46:12.247Z,45.80
2023-08-01T05:47:12.308Z,45.84
2023-08-01T05:48:12.332Z,45.90
2023-08-01T05:49:12.385Z,45.91
2023-08-01T05:50:12.417Z,45.89
2023-08-01T05:51:14.474Z,45.90
2023-08-01T05:52:12.483Z,45.85
2023-08-01T05:53:12.470Z,45.94
2023-08-01T05:54:12.458Z,46.00
2023-08-01T05:55:12.448Z,45.99
2023-08-01T05:56:12.490Z,46.00
2023-08-01T05:57:12.518Z,46.10
2023-08-01T05:58:12.431Z,46.10
2023-08-01T05:59:12.438Z,46.12
2023-08-01T06:00:12.437Z,46.07
2023-08-01T06:01:12.449Z,46.12
2023-08-01T06:02:12.430Z,46.19
2023-08-01T06:04:12.504Z,46.18
2023-08-01T06:05:12.392Z,46.29
2023-08-01T06:06:12.390Z,46.32
2023-08-01T06:07:12.379Z,46.30
2023-08-01T06:08:12.358Z,46.32
2023-08-01T06:09:12.377Z,46.38
2023-08-01T06:10:12.421Z,46.35
2023-08-01T06:11:12.366Z,46.37
2023-08-01T06:12:12.335Z,46.35
2023-08-01T06:13:12.322Z,46.32
2023-08-01T06:14:12.356Z,46.32
2023-08-01T06:15:12.312Z,46.30
2023-08-01T06:16:12.360Z,46.30
2023-08-01T06:17:12.314Z,46.30
2023-08-01T06:18:12.283Z,46.32
2023-08-01T06:19:12.302Z,46.30
2023-08-01T06:20:12.299Z,46.36
2023-08-01T06:21:12.284Z,46.40
2023-08-01T06:22:12.274Z,46.37
2023-08-01T06:23:12.282Z,46.35
2023-08-01T06:24:12.263Z,46.40
2023-08-01T06:25:12.260Z,46.44
2023-08-01T06:26:12.242Z,46.40
2023-08-01T06:27:12.254Z,46.43
2023-08-01T06:28:12.256Z,46.47
2023-08-01T06:29:12.244Z,46.47
2023-08-01T06:30:12.297Z,46.56
2023-08-01T06:31:12.318Z,46.52
2023-08-01T06:32:12.456Z,46.55
2023-08-01T06:33:12.511Z,46.60
2023-08-01T06:34:12.508Z,46.60
2023-08-01T06:35:12.541Z,46.59
2023-08-01T06:36:13.293Z,46.66
2023-08-01T06:37:12.653Z,46.71
2023-08-01T06:38:12.677Z,46.68
2023-08-01T06:39:12.710Z,46.65
2023-08-01T06:40:12.775Z,46.68
2023-08-01T06:41:12.821Z,46.68
2023-08-01T06:42:12.855Z,46.66
2023-08-01T06:43:12.911Z,46.71
2023-08-01T06:44:12.963Z,46.71
2023-08-01T06:45:13.008Z,46.78
2023-08-01T06:46:13.094Z,46.83
2023-08-01T06:47:13.109Z,46.85
2023-08-01T06:48:13.136Z,46.82
2023-08-01T06:49:13.211Z,46.82
2023-08-01T06:50:13.250Z,46.78
2023-08-01T06:51:13.284Z,46.86
2023-08-01T06:52:13.350Z,46.84
2023-08-01T06:53:13.417Z,46.87
2023-08-01T06:54:13.458Z,46.91
2023-08-01T06:55:13.514Z,46.85
2023-08-01T06:56:13.585Z,46.87
2023-08-01T06:57:13.620Z,46.86
2023-08-01T06:58:13.652Z,46.84
2023-08-01T06:59:13.707Z,46.91
2023-08-01T07:00:13.773Z,46.89
2023-08-01T07:01:13.848Z,46.88
2023-08-01T07:02:13.867Z,46.87
2023-08-01T07:03:13.997Z,46.84
2023-08-01T07:04:13.975Z,46.87
2023-08-01T07:05:14.035Z,46.93
2023-08-01T07:06:14.134Z,46.84
2023-08-01T07:07:14.169Z,46.83
2023-08-01T07:08:14.193Z,46.88
2023-08-01T07:09:14.249Z,46.91
2023-08-01T07:10:14.307Z,46.91
2023-08-01T07:11:14.330Z,46.91
2023-08-01T07:12:14.419Z,46.99
2023-08-01T07:13:14.452Z,46.93
2023-08-01T07:14:14.501Z,46.94
2023-08-01T07:15:14.581Z,46.94
2023-08-01T07:16:14.642Z,46.97
2023-08-01T07:17:14.665Z,47.01
2023-08-01T07:18:14.731Z,46.96
2023-08-01T07:19:14.766Z,46.97
2023-08-01T07:20:14.813Z,46.97
2023-08-01T07:21:14.884Z,47.01
2023-08-01T07:22:14.940Z,47.04
2023-08-01T07:23:14.985Z,47.07
2023-08-01T07:24:15.024Z,47.01
2023-08-01T07:25:15.080Z,47.00
2023-08-01T07:26:15.187Z,46.97
2023-08-01T07:27:15.216Z,47.02
2023-08-01T07:28:15.306Z,47.04
2023-08-01T07:29:15.289Z,47.04
2023-08-01T07:30:15.359Z,47.11
2023-08-01T07:31:15.459Z,47.07
2023-08-01T07:32:15.452Z,47.07
2023-08-01T07:33:15.522Z,47.13
2023-08-01T07:34:15.572Z,47.11
2023-08-01T07:35:15.713Z,47.15
2023-08-01T07:36:15.721Z,47.17
2023-08-01T07:37:15.712Z,47.16
2023-08-01T07:38:15.810Z,47.21
2023-08-01T07:39:15.823Z,47.26
2023-08-01T07:40:15.885Z,47.25
2023-08-01T07:41:15.930Z,47.26
2023-08-01T07:42:15.988Z,47.27
2023-08-01T07:43:16.031Z,47.27
2023-08-01T07:44:16.063Z,47.33
2023-08-01T07:45:16.115Z,47.36
2023-08-01T07:46:16.205Z,47.35
2023-08-01T07:47:16.205Z,47.34
2023-08-01T07:48:16.253Z,47.35
2023-08-01T07:49:16.286Z,47.31
2023-08-01T07:50:16.361Z,47.28
2023-08-01T07:51:16.419Z,47.27
2023-08-01T07:52:16.455Z,47.23
2023-08-01T07:53:16.505Z,47.28
2023-08-01T07:54:16.598Z,47.26
2023-08-01T07:55:16.618Z,47.32
2023-08-01T07:56:16.666Z,47.27
2023-08-01T07:57:16.745Z,47.21
2023-08-01T07:58:16.776Z,47.20
2023-08-01T07:59:16.840Z,47.22
2023-08-01T08:00:16.838Z,47.08
2023-08-01T08:01:16.904Z,47.11
2023-08-01T08:02:16.961Z,47.10
2023-08-01T08:03:17.052Z,47.08
2023-08-01T08:04:17.053Z,47.14
2023-08-01T08:05:17.092Z,47.07
2023-08-01T08:06:17.158Z,47.14
2023-08-01T08:07:17.166Z,47.13
2023-08-01T08:08:17.232Z,47.07
2023-08-01T08:09:17.228Z,46.98
2023-08-01T08:10:17.292Z,46.96
2023-08-01T08:11:17.320Z,47.04
2023-08-01T08:12:17.361Z,47.02
2023-08-01T08:13:17.420Z,47.02
2023-08-01T08:14:17.434Z,46.98
2023-08-01T08:15:17.495Z,47.03
2023-08-01T08:16:17.570Z,47.02
2023-08-01T08:17:17.607Z,47.06
2023-08-01T08:18:20.326Z,47.10
2023-08-01T08:19:17.618Z,47.12
2023-08-01T08:20:17.593Z,47.13
2023-08-01T08:21:17.618Z,47.12
2023-08-01T08:22:17.561Z,47.14
2023-08-01T08:23:17.566Z,47.17
2023-08-01T08:24:17.589Z,47.17
2023-08-01T08:25:17.539Z,47.23
2023-08-01T08:26:17.539Z,47.23
2023-08-01T08:27:17.527Z,47.23
2023-08-01T08:28:17.550Z,47.22
2023-08-01T08:29:17.522Z,47.26
2023-08-01T08:30:17.531Z,47.27
2023-08-01T08:31:17.552Z,47.28
2023-08-01T08:32:17.488Z,47.33
2023-08-01T08:33:17.486Z,47.28
2023-08-01T08:34:17.497Z,47.36
2023-08-01T08:35:17.490Z,47.32
2023-08-01T08:36:17.492Z,47.34
2023-08-01T08:37:17.491Z,47.37
2023-08-01T08:38:17.473Z,47.31
2023-08-01T08:39:17.464Z,47.38
2023-08-01T08:40:17.461Z,47.35
2023-08-01T08:41:17.444Z,47.45
2023-08-01T08:42:17.452Z,47.37
2023-08-01T08:43:17.422Z,47.47
2023-08-01T08:44:17.420Z,47.44
2023-08-01T08:45:17.424Z,47.49
2023-08-01T08:46:17.460Z,47.51
2023-08-01T08:47:17.404Z,47.55
2023-08-01T08:48:17.380Z,47.61
2023-08-01T08:49:17.422Z,47.62
2023-08-01T08:50:17.376Z,47.65
2023-08-01T08:51:17.370Z,47.66
2023-08-01T08:52:17.379Z,47.63
2023-08-01T08:53:17.368Z,47.68
2023-08-01T08:54:17.363Z,47.68
2023-08-01T08:55:17.345Z,47.66
2023-08-01T08:56:17.352Z,47.62
2023-08-01T08:57:17.337Z,47.59
2023-08-01T08:58:17.331Z,47.62
2023-08-01T08:59:17.337Z,47.64
2023-08-01T09:00:19.099Z,47.66
2023-08-01T09:01:17.353Z,47.65
2023-08-01T09:02:17.437Z,47.66
2023-08-01T09:03:17.369Z,47.65
2023-08-01T09:04:17.290Z,47.60
2023-08-01T09:05:17.318Z,47.61
2023-08-01T09:06:17.256Z,47.55
2023-08-01T09:07:17.256Z,47.58
2023-08-01T09:08:17.256Z,47.60
2023-08-01T09:09:17.286Z,47.57
2023-08-01T09:10:17.286Z,47.53
2023-08-01T09:11:17.249Z,47.60
2023-08-01T09:12:17.319Z,47.62
2023-08-01T09:13:17.227Z,47.58
2023-08-01T09:14:17.227Z,47.55
2023-08-01T09:15:17.206Z,47.60
2023-08-01T09:16:17.234Z,47.52
2023-08-01T09:17:17.207Z,47.55
2023-08-01T09:18:17.215Z,47.55
2023-08-01T09:19:17.219Z,47.49
2023-08-01T09:20:17.185Z,47.50
2023-08-01T09:21:17.172Z,47.44
2023-08-01T09:22:17.171Z,47.46
2023-08-01T09:23:17.190Z,47.42
2023-08-01T09:24:17.153Z,47.41
2023-08-01T09:25:17.155Z,47.36
2023-08-01T09:26:17.167Z,47.33
2023-08-01T09:27:17.168Z,47.39
2023-08-01T09:28:17.189Z,47.38
2023-08-01T09:29:17.126Z,47.39
2023-08-01T09:30:17.409Z,47.37
2023-08-01T09:31:17.172Z,47.35
2023-08-01T09:32:17.136Z,47.27
2023-08-01T09:33:17.095Z,47.25
2023-08-01T09:34:17.088Z,47.16
2023-08-01T09:35:17.140Z,47.17
2023-08-01T09:36:17.103Z,47.18
2023-08-01T09:37:17.091Z,47.08
2023-08-01T09:38:17.067Z,47.07
2023-08-01T09:39:17.047Z,47.08
2023-08-01T09:40:17.098Z,47.07
2023-08-01T09:41:17.065Z,47.08
2023-08-01T09:42:17.055Z,47.08
2023-08-01T09:43:17.022Z,47.07
2023-08-01T09:44:17.044Z,47.06
2023-08-01T09:45:17.052Z,47.12
2023-08-01T09:46:17.065Z,47.18
2023-08-01T09:47:17.023Z,47.17
2023-08-01T09:48:17.117Z,47.22
2023-08-01T09:49:16.990Z,47.22
2023-08-01T09:50:16.993Z,47.23
2023-08-01T09:51:17.006Z,47.23
2023-08-01T09:52:16.977Z,47.22
2023-08-01T09:53:16.983Z,47.24
2023-08-01T09:54:17.001Z,47.25
2023-08-01T09:55:16.966Z,47.17
2023-08-01T09:56:16.953Z,47.17
2023-08-01T09:57:16.936Z,47.28
2023-08-01T09:58:16.937Z,47.29
2023-08-01T09:59:16.934Z,47.28
2023-08-01T10:00:16.934Z,47.18
2023-08-01T10:01:16.909Z,47.22
2023-08-01T10:02:16.909Z,47.17
2023-08-01T10:03:17.013Z,47.20
2023-08-01T10:04:16.904Z,47.18
2023-08-01T10:05:16.945Z,47.18
2023-08-01T10:06:16.893Z,47.25
2023-08-01T10:07:16.885Z,47.23
2023-08-01T10:08:16.907Z,47.22
2023-08-01T10:09:16.902Z,47.11
2023-08-01T10:10:16.884Z,47.09
2023-08-01T10:11:16.856Z,47.12
2023-08-01T10:12:16.879Z,47.18
2023-08-01T10:13:16.864Z,47.18
2023-08-01T10:14:16.856Z,47.22
2023-08-01T10:15:16.880Z,47.19
2023-08-01T10:16:16.860Z,47.17
2023-08-01T10:17:16.858Z,47.08
2023-08-01T10:18:16.844Z,47.05
2023-08-01T10:19:16.853Z,47.00
2023-08-01T10:20:16.813Z,47.11
2023-08-01T10:21:16.827Z,47.06
2023-08-01T10:22:16.818Z,47.03
2023-08-01T10:23:16.800Z,47.01
2023-08-01T10:24:16.847Z,47.06
2023-08-01T10:25:16.880Z,47.10
2023-08-01T10:26:16.929Z,47.08
2023-08-01T10:27:16.885Z,47.09
2023-08-01T10:28:16.969Z,47.17
2023-08-01T10:29:16.912Z,47.20
2023-08-01T10:30:16.920Z,47.21
2023-08-01T10:31:17.015Z,47.28
2023-08-01T10:32:16.988Z,47.27
2023-08-01T10:33:16.998Z,47.23
2023-08-01T10:34:17.594Z,47.22
2023-08-01T10:35:17.074Z,47.19
2023-08-01T10:36:17.053Z,47.15
2023-08-01T10:37:17.065Z,47.16
2023-08-01T10:38:17.101Z,47.14
2023-08-01T10:39:17.103Z,47.11
2023-08-01T10:40:17.341Z,47.11
2023-08-01T10:41:17.166Z,47.07
2023-08-01T10:42:17.196Z,47.02
2023-08-01T10:43:17.180Z,47.05
2023-08-01T10:44:17.237Z,47.03
2023-08-01T10:45:17.238Z,47.02
2023-08-01T10:46:17.292Z,46.99
2023-08-01T10:47:17.287Z,47.01
2023-08-01T10:48:17.299Z,47.05
2023-08-01T10:49:17.318Z,47.00
2023-08-01T10:50:17.314Z,47.01
2023-08-01T10:51:17.342Z,46.96
2023-08-01T10:52:17.403Z,46.91
2023-08-01T10:53:17.379Z,46.90
2023-08-01T10:54:17.411Z,46.94
2023-08-01T10:55:17.424Z,46.86
2023-08-01T10:56:17.575Z,46.89
2023-08-01T10:57:17.458Z,46.88
2023-08-01T10:58:17.506Z,46.97
2023-08-01T10:59:17.528Z,47.00
2023-08-01T11:00:18.357Z,47.01
2023-08-01T11:01:17.591Z,46.99
2023-08-01T11:02:17.594Z,46.96
2023-08-01T11:03:17.643Z,46.97
2023-08-01T11:04:17.600Z,46.93
2023-08-01T11:05:17.600Z,46.86
2023-08-01T11:06:17.635Z,46.78
2023-08-01T11:07:17.623Z,46.81
2023-08-01T11:08:17.651Z,46.85
2023-08-01T11:09:17.664Z,46.85
2023-08-01T11:10:17.690Z,46.78
2023-08-01T11:11:17.741Z,46.80
2023-08-01T11:12:17.714Z,46.79
2023-08-01T11:13:17.755Z,46.79
2023-08-01T11:14:17.733Z,46.79
2023-08-01T11:15:17.750Z,46.77
2023-08-01T11:16:17.790Z,46.77
2023-08-01T11:17:17.778Z,46.83
2023-08-01T11:18:17.794Z,46.77
2023-08-01T11:19:17.787Z,46.78
2023-08-01T11:20:17.814Z,46.77
2023-08-01T11:21:17.824Z,46.78
2023-08-01T11:22:17.814Z,46.86
2023-08-01T11:23:17.822Z,46.81
2023-08-01T11:24:17.835Z,46.75
2023-08-01T11:25:17.820Z,46.70
2023-08-01T11:26:17.825Z,46.65
2023-08-01T11:27:17.843Z,46.59
2023-08-01T11:28:17.895Z,46.58
2023-08-01T11:29:17.863Z,46.52
2023-08-01T11:30:17.844Z,46.56
2023-08-01T11:31:17.902Z,46.46
2023-08-01T11:32:17.865Z,46.50
2023-08-01T11:33:17.860Z,46.46
2023-08-01T11:34:17.873Z,46.40
2023-08-01T11:35:17.891Z,46.39
2023-08-01T11:36:17.861Z,46.40
2023-08-01T11:37:17.886Z,46.41
2023-08-01T11:38:17.873Z,46.43
2023-08-01T11:39:17.869Z,46.43
2023-08-01T11:40:17.865Z,46.44
2023-08-01T11:41:17.951Z,46.41
2023-08-01T11:42:17.880Z,46.50
2023-08-01T11:43:17.908Z,46.44
2023-08-01T11:44:17.937Z,46.44
2023-08-01T11:45:17.897Z,46.37
2023-08-01T11:46:17.934Z,46.19
2023-08-01T11:47:17.928Z,46.13
2023-08-01T11:48:17.890Z,46.09
2023-08-01T11:49:17.913Z,46.02
2023-08-01T11:50:17.879Z,45.94
2023-08-01T11:51:17.892Z,45.86
2023-08-01T11:52:17.918Z,45.83
2023-08-01T11:53:17.879Z,45.71
2023-08-01T11:54:17.928Z,45.72
2023-08-01T11:55:17.914Z,45.66
2023-08-01T11:56:17.933Z,45.65
2023-08-01T11:57:17.954Z,45.61
2023-08-01T11:58:18.037Z,45.64
2023-08-01T11:59:17.944Z,45.71
2023-08-01T12:00:17.959Z,45.66
2023-08-01T12:01:18.007Z,45.66
2023-08-01T12:02:17.952Z,45.65
2023-08-01T12:03:17.988Z,45.64
2023-08-01T12:04:17.983Z,45.67
2023-08-01T12:05:17.992Z,45.72
2023-08-01T12:06:17.977Z,45.73
2023-08-01T12:07:18.001Z,45.70
2023-08-01T12:08:17.984Z,45.67
2023-08-01T12:09:17.990Z,45.69
2023-08-01T12:10:17.997Z,45.72
2023-08-01T12:11:18.008Z,45.68
2023-08-01T12:12:17.994Z,45.70
2023-08-01T12:13:17.996Z,45.68
2023-08-01T12:14:17.991Z,45.72
2023-08-01T12:15:18.002Z,45.71
2023-08-01T12:16:18.042Z,45.70
2023-08-01T12:17:17.994Z,45.69
2023-08-01T12:18:19.059Z,45.65
2023-08-01T12:19:19.027Z,45.65
2023-08-01T12:20:17.992Z,45.59
2023-08-01T12:21:17.967Z,45.63
2023-08-01T12:22:18.047Z,45.61
2023-08-01T12:23:17.967Z,45.56
2023-08-01T12:24:17.990Z,45.52
2023-08-01T12:25:17.951Z,45.49
2023-08-01T12:26:17.961Z,45.44
2023-08-01T12:27:17.943Z,45.30
2023-08-01T12:28:17.944Z,45.34
2023-08-01T12:29:17.941Z,45.27
2023-08-01T12:30:17.928Z,45.23
2023-08-01T12:31:17.966Z,45.19
2023-08-01T12:32:17.940Z,45.16
2023-08-01T12:33:17.892Z,45.10
2023-08-01T12:34:17.900Z,45.14
2023-08-01T12:35:17.887Z,45.15
2023-08-01T12:36:17.868Z,45.11
2023-08-01T12:37:17.918Z,45.14
2023-08-01T12:38:17.891Z,45.07
2023-08-01T12:39:17.873Z,45.04
2023-08-01T12:40:17.984Z,44.99
2023-08-01T12:41:17.856Z,45.04
2023-08-01T12:42:17.850Z,44.99
2023-08-01T12:43:17.832Z,45.00
2023-08-01T12:44:17.811Z,45.02
2023-08-01T12:45:17.811Z,44.99
2023-08-01T12:46:17.869Z,44.99
2023-08-01T12:47:17.817Z,44.99
2023-08-01T12:48:17.808Z,44.94
2023-08-01T12:49:17.800Z,45.01
2023-08-01T12:50:17.779Z,45.00
2023-08-01T12:51:17.796Z,44.93
2023-08-01T12:52:17.755Z,44.94
2023-08-01T12:53:17.802Z,44.79